Wetaskiwin, Canada
Current Conditions -  °F | °C
As of 7:00 AM on Sunday 25 Jan 2015 (Local Time) from CYEG Reporting Station
Broken Clouds Broken Clouds  
Wind Chill: 28°   Ceiling: 11000
Heat Index: 36°   Visibility: 15mi
Dew Point: 30°   Wind: 12mph
Humidity: 81%   Direction: 200°SSW
Pressure: 29.64"   Gusts: NA
Location:  52.97°N, 113.38°W
Report Text: CYEG 251400Z 20010KT 15SM BKN110 02/M01 A2964 RMK AC7 PTCHS VIRGA SLP065
Loading
Personal Weather Stations






























Interactive Weather Map New forecast layout! Learn more

10-Day Weather Forecast

Advertisements
Track Severe Weather on mobile